sensor_id;sensor_type;location;lat;lon;timestamp;P1;durP1;ratioP1;P2;durP2;ratioP2
64915;SDS011;51427;-27.442;153.014;2024-03-17T00:00:38;4.63;;;1.50;;
64915;SDS011;51427;-27.442;153.014;2024-03-17T00:03:06;4.35;;;0.80;;
64915;SDS011;51427;-27.442;153.014;2024-03-17T00:05:37;2.03;;;0.73;;
64915;SDS011;51427;-27.442;153.014;2024-03-17T00:08:05;3.33;;;0.70;;
64915;SDS011;51427;-27.442;153.014;2024-03-17T00:10:34;4.60;;;1.15;;
64915;SDS011;51427;-27.442;153.014;2024-03-17T00:13:01;3.97;;;1.13;;
64915;SDS011;51427;-27.442;153.014;2024-03-17T00:15:29;3.90;;;1.05;;
64915;SDS011;51427;-27.442;153.014;2024-03-17T00:17:58;3.88;;;0.77;;
64915;SDS011;51427;-27.442;153.014;2024-03-17T00:20:25;3.75;;;0.93;;
64915;SDS011;51427;-27.442;153.014;2024-03-17T00:22:54;5.45;;;1.20;;
64915;SDS011;51427;-27.442;153.014;2024-03-17T00:25:23;6.03;;;1.17;;
64915;SDS011;51427;-27.442;153.014;2024-03-17T00:27:50;3.17;;;1.15;;
64915;SDS011;51427;-27.442;153.014;2024-03-17T00:30:21;3.97;;;1.33;;
64915;SDS011;51427;-27.442;153.014;2024-03-17T00:32:48;3.55;;;1.20;;
64915;SDS011;51427;-27.442;153.014;2024-03-17T00:35:15;3.55;;;1.35;;
64915;SDS011;51427;-27.442;153.014;2024-03-17T00:37:49;4.15;;;1.40;;
64915;SDS011;51427;-27.442;153.014;2024-03-17T00:40:17;3.50;;;1.35;;
64915;SDS011;51427;-27.442;153.014;2024-03-17T00:42:45;3.70;;;1.40;;
64915;SDS011;51427;-27.442;153.014;2024-03-17T00:45:13;5.22;;;1.33;;
64915;SDS011;51427;-27.442;153.014;2024-03-17T00:47:41;4.47;;;1.60;;
64915;SDS011;51427;-27.442;153.014;2024-03-17T00:50:10;5.20;;;1.58;;
64915;SDS011;51427;-27.442;153.014;2024-03-17T00:52:38;2.92;;;1.30;;
64915;SDS011;51427;-27.442;153.014;2024-03-17T00:55:05;3.75;;;1.25;;
64915;SDS011;51427;-27.442;153.014;2024-03-17T00:57:33;4.78;;;1.15;;
64915;SDS011;51427;-27.442;153.014;2024-03-17T01:00:00;3.72;;;1.02;;
64915;SDS011;51427;-27.442;153.014;2024-03-17T01:02:28;4.15;;;1.33;;
64915;SDS011;51427;-27.442;153.014;2024-03-17T01:04:55;5.22;;;1.30;;
64915;SDS011;51427;-27.442;153.014;2024-03-17T01:07:23;6.90;;;1.35;;
64915;SDS011;51427;-27.442;153.014;2024-03-17T01:09:51;3.00;;;1.05;;
64915;SDS011;51427;-27.442;153.014;2024-03-17T01:12:19;4.07;;;0.85;;
64915;SDS011;51427;-27.442;153.014;2024-03-17T01:14:47;6.18;;;1.40;;
64915;SDS011;51427;-27.442;153.014;2024-03-17T01:17:14;3.85;;;1.00;;
64915;SDS011;51427;-27.442;153.014;2024-03-17T01:19:41;4.15;;;1.30;;
64915;SDS011;51427;-27.442;153.014;2024-03-17T01:22:09;2.80;;;0.80;;
64915;SDS011;51427;-27.442;153.014;2024-03-17T01:24:36;2.67;;;0.70;;
64915;SDS011;51427;-27.442;153.014;2024-03-17T01:27:07;3.63;;;1.00;;
64915;SDS011;51427;-27.442;153.014;2024-03-17T01:29:40;4.38;;;1.02;;
64915;SDS011;51427;-27.442;153.014;2024-03-17T01:32:07;2.25;;;1.05;;
64915;SDS011;51427;-27.442;153.014;2024-03-17T01:34:34;2.65;;;0.75;;
64915;SDS011;51427;-27.442;153.014;2024-03-17T01:37:01;3.50;;;0.80;;
64915;SDS011;51427;-27.442;153.014;2024-03-17T01:39:29;2.70;;;0.88;;
64915;SDS011;51427;-27.442;153.014;2024-03-17T01:41:58;4.53;;;1.02;;
64915;SDS011;51427;-27.442;153.014;2024-03-17T01:44:26;3.85;;;0.95;;
64915;SDS011;51427;-27.442;153.014;2024-03-17T01:46:55;3.47;;;0.80;;
64915;SDS011;51427;-27.442;153.014;2024-03-17T01:49:23;2.67;;;0.70;;
64915;SDS011;51427;-27.442;153.014;2024-03-17T01:51:52;5.10;;;0.90;;
64915;SDS011;51427;-27.442;153.014;2024-03-17T01:54:20;2.25;;;0.80;;
64915;SDS011;51427;-27.442;153.014;2024-03-17T01:56:47;2.90;;;0.70;;
64915;SDS011;51427;-27.442;153.014;2024-03-17T01:59:15;1.65;;;0.68;;
64915;SDS011;51427;-27.442;153.014;2024-03-17T02:01:42;2.92;;;0.85;;
64915;SDS011;51427;-27.442;153.014;2024-03-17T02:04:10;4.18;;;0.88;;
64915;SDS011;51427;-27.442;153.014;2024-03-17T02:06:37;4.18;;;0.75;;
64915;SDS011;51427;-27.442;153.014;2024-03-17T02:09:05;4.35;;;0.75;;
64915;SDS011;51427;-27.442;153.014;2024-03-17T02:11:33;3.20;;;0.63;;
64915;SDS011;51427;-27.442;153.014;2024-03-17T02:14:00;1.50;;;0.70;;
64915;SDS011;51427;-27.442;153.014;2024-03-17T02:16:28;4.00;;;1.08;;
64915;SDS011;51427;-27.442;153.014;2024-03-17T02:18:55;2.70;;;0.60;;
64915;SDS011;51427;-27.442;153.014;2024-03-17T02:21:23;3.95;;;0.93;;
64915;SDS011;51427;-27.442;153.014;2024-03-17T02:23:55;4.45;;;1.00;;
64915;SDS011;51427;-27.442;153.014;2024-03-17T02:26:24;5.40;;;1.35;;
64915;SDS011;51427;-27.442;153.014;2024-03-17T02:28:52;4.05;;;1.13;;
64915;SDS011;51427;-27.442;153.014;2024-03-17T02:31:19;4.05;;;0.88;;
64915;SDS011;51427;-27.442;153.014;2024-03-17T02:33:47;5.03;;;1.13;;
64915;SDS011;51427;-27.442;153.014;2024-03-17T02:36:15;5.63;;;1.27;;
64915;SDS011;51427;-27.442;153.014;2024-03-17T02:38:43;4.75;;;1.17;;
64915;SDS011;51427;-27.442;153.014;2024-03-17T02:41:28;1.88;;;0.80;;
64915;SDS011;51427;-27.442;153.014;2024-03-17T02:43:55;4.78;;;0.85;;
64915;SDS011;51427;-27.442;153.014;2024-03-17T02:46:23;4.85;;;1.02;;
64915;SDS011;51427;-27.442;153.014;2024-03-17T02:48:51;6.97;;;1.05;;
64915;SDS011;51427;-27.442;153.014;2024-03-17T02:51:20;5.07;;;1.10;;
64915;SDS011;51427;-27.442;153.014;2024-03-17T02:53:49;5.18;;;0.93;;
64915;SDS011;51427;-27.442;153.014;2024-03-17T02:56:17;4.35;;;1.00;;
64915;SDS011;51427;-27.442;153.014;2024-03-17T02:58:45;2.78;;;0.98;;
64915;SDS011;51427;-27.442;153.014;2024-03-17T03:01:13;4.53;;;1.15;;
64915;SDS011;51427;-27.442;153.014;2024-03-17T03:03:41;5.00;;;1.10;;
64915;SDS011;51427;-27.442;153.014;2024-03-17T03:06:09;5.53;;;1.05;;
64915;SDS011;51427;-27.442;153.014;2024-03-17T03:08:40;6.88;;;1.35;;
64915;SDS011;51427;-27.442;153.014;2024-03-17T03:11:09;4.13;;;1.15;;
64915;SDS011;51427;-27.442;153.014;2024-03-17T03:13:38;6.28;;;1.17;;
64915;SDS011;51427;-27.442;153.014;2024-03-17T03:16:06;3.95;;;1.08;;
64915;SDS011;51427;-27.442;153.014;2024-03-17T03:18:35;5.65;;;1.27;;
64915;SDS011;51427;-27.442;153.014;2024-03-17T03:21:03;7.28;;;1.40;;
64915;SDS011;51427;-27.442;153.014;2024-03-17T03:23:31;6.45;;;1.20;;
64915;SDS011;51427;-27.442;153.014;2024-03-17T03:26:00;4.53;;;0.85;;
64915;SDS011;51427;-27.442;153.014;2024-03-17T03:28:31;5.22;;;1.08;;
64915;SDS011;51427;-27.442;153.014;2024-03-17T03:31:01;5.70;;;1.25;;
64915;SDS011;51427;-27.442;153.014;2024-03-17T03:33:29;8.20;;;1.48;;
64915;SDS011;51427;-27.442;153.014;2024-03-17T03:35:56;5.13;;;1.35;;
64915;SDS011;51427;-27.442;153.014;2024-03-17T03:38:24;3.47;;;1.10;;
64915;SDS011;51427;-27.442;153.014;2024-03-17T03:40:51;3.42;;;0.88;;
64915;SDS011;51427;-27.442;153.014;2024-03-17T03:43:18;3.35;;;0.70;;
64915;SDS011;51427;-27.442;153.014;2024-03-17T03:45:45;4.60;;;0.73;;
64915;SDS011;51427;-27.442;153.014;2024-03-17T03:48:13;4.82;;;0.82;;
64915;SDS011;51427;-27.442;153.014;2024-03-17T03:50:40;2.70;;;0.63;;
64915;SDS011;51427;-27.442;153.014;2024-03-17T03:53:08;2.22;;;0.75;;
64915;SDS011;51427;-27.442;153.014;2024-03-17T03:55:35;7.43;;;1.20;;
64915;SDS011;51427;-27.442;153.014;2024-03-17T03:58:03;3.25;;;0.80;;
64915;SDS011;51427;-27.442;153.014;2024-03-17T04:00:30;1.98;;;0.60;;
64915;SDS011;51427;-27.442;153.014;2024-03-17T04:02:58;2.58;;;0.75;;
64915;SDS011;51427;-27.442;153.014;2024-03-17T04:05:27;2.28;;;0.80;;
64915;SDS011;51427;-27.442;153.014;2024-03-17T04:07:54;7.10;;;1.20;;
64915;SDS011;51427;-27.442;153.014;2024-03-17T04:10:22;6.43;;;1.60;;
64915;SDS011;51427;-27.442;153.014;2024-03-17T04:12:50;6.70;;;1.15;;
64915;SDS011;51427;-27.442;153.014;2024-03-17T04:15:18;3.35;;;0.52;;
64915;SDS011;51427;-27.442;153.014;2024-03-17T04:17:46;1.27;;;0.40;;
64915;SDS011;51427;-27.442;153.014;2024-03-17T04:20:13;3.03;;;1.00;;
64915;SDS011;51427;-27.442;153.014;2024-03-17T04:22:41;3.22;;;0.90;;
64915;SDS011;51427;-27.442;153.014;2024-03-17T04:25:09;3.35;;;0.80;;
64915;SDS011;51427;-27.442;153.014;2024-03-17T04:27:38;2.63;;;0.93;;
64915;SDS011;51427;-27.442;153.014;2024-03-17T04:30:06;4.55;;;1.38;;
64915;SDS011;51427;-27.442;153.014;2024-03-17T04:32:34;4.55;;;1.02;;
64915;SDS011;51427;-27.442;153.014;2024-03-17T04:35:01;5.15;;;1.15;;
64915;SDS011;51427;-27.442;153.014;2024-03-17T04:37:29;3.45;;;0.93;;
64915;SDS011;51427;-27.442;153.014;2024-03-17T04:39:56;4.65;;;1.08;;
64915;SDS011;51427;-27.442;153.014;2024-03-17T04:42:23;5.60;;;1.00;;
64915;SDS011;51427;-27.442;153.014;2024-03-17T04:44:51;6.72;;;1.10;;
64915;SDS011;51427;-27.442;153.014;2024-03-17T04:47:18;3.47;;;1.20;;
64915;SDS011;51427;-27.442;153.014;2024-03-17T04:49:46;5.93;;;1.52;;
64915;SDS011;51427;-27.442;153.014;2024-03-17T04:52:13;3.08;;;0.73;;
64915;SDS011;51427;-27.442;153.014;2024-03-17T04:54:42;5.43;;;1.58;;
64915;SDS011;51427;-27.442;153.014;2024-03-17T04:57:09;4.57;;;0.98;;
64915;SDS011;51427;-27.442;153.014;2024-03-17T04:59:37;5.30;;;1.20;;
64915;SDS011;51427;-27.442;153.014;2024-03-17T05:02:04;5.03;;;0.95;;
64915;SDS011;51427;-27.442;153.014;2024-03-17T05:04:32;3.67;;;1.10;;
64915;SDS011;51427;-27.442;153.014;2024-03-17T05:06:59;3.63;;;0.90;;
64915;SDS011;51427;-27.442;153.014;2024-03-17T05:09:26;5.80;;;0.90;;
64915;SDS011;51427;-27.442;153.014;2024-03-17T05:11:54;3.30;;;0.90;;
64915;SDS011;51427;-27.442;153.014;2024-03-17T05:14:21;2.63;;;0.88;;
64915;SDS011;51427;-27.442;153.014;2024-03-17T05:16:52;3.13;;;0.70;;
64915;SDS011;51427;-27.442;153.014;2024-03-17T05:19:19;2.47;;;0.60;;
64915;SDS011;51427;-27.442;153.014;2024-03-17T05:21:46;5.20;;;0.95;;
64915;SDS011;51427;-27.442;153.014;2024-03-17T05:24:13;4.07;;;0.85;;
64915;SDS011;51427;-27.442;153.014;2024-03-17T05:26:41;4.85;;;1.08;;
64915;SDS011;51427;-27.442;153.014;2024-03-17T05:29:08;7.45;;;1.15;;
64915;SDS011;51427;-27.442;153.014;2024-03-17T05:31:35;2.45;;;0.60;;
64915;SDS011;51427;-27.442;153.014;2024-03-17T05:34:05;3.58;;;1.15;;
64915;SDS011;51427;-27.442;153.014;2024-03-17T05:36:33;4.28;;;0.70;;
64915;SDS011;51427;-27.442;153.014;2024-03-17T05:39:00;3.92;;;0.70;;
64915;SDS011;51427;-27.442;153.014;2024-03-17T05:41:28;2.90;;;0.65;;
64915;SDS011;51427;-27.442;153.014;2024-03-17T05:43:55;3.42;;;0.70;;
64915;SDS011;51427;-27.442;153.014;2024-03-17T05:46:29;3.65;;;0.77;;
64915;SDS011;51427;-27.442;153.014;2024-03-17T05:48:56;7.70;;;1.20;;
64915;SDS011;51427;-27.442;153.014;2024-03-17T05:51:23;2.72;;;0.75;;
64915;SDS011;51427;-27.442;153.014;2024-03-17T05:53:53;4.60;;;0.90;;
64915;SDS011;51427;-27.442;153.014;2024-03-17T05:56:21;6.35;;;1.00;;
64915;SDS011;51427;-27.442;153.014;2024-03-17T05:58:49;4.03;;;0.90;;
64915;SDS011;51427;-27.442;153.014;2024-03-17T06:01:16;2.83;;;0.77;;
64915;SDS011;51427;-27.442;153.014;2024-03-17T06:03:45;4.65;;;1.10;;
64915;SDS011;51427;-27.442;153.014;2024-03-17T06:06:12;3.13;;;0.80;;
64915;SDS011;51427;-27.442;153.014;2024-03-17T06:08:39;2.00;;;0.65;;
64915;SDS011;51427;-27.442;153.014;2024-03-17T06:11:07;3.70;;;0.85;;
64915;SDS011;51427;-27.442;153.014;2024-03-17T06:13:34;3.28;;;1.13;;
64915;SDS011;51427;-27.442;153.014;2024-03-17T06:16:02;5.40;;;1.05;;
64915;SDS011;51427;-27.442;153.014;2024-03-17T06:18:30;4.47;;;0.80;;
64915;SDS011;51427;-27.442;153.014;2024-03-17T06:20:58;3.45;;;0.93;;
64915;SDS011;51427;-27.442;153.014;2024-03-17T06:23:25;2.72;;;0.68;;
64915;SDS011;51427;-27.442;153.014;2024-03-17T06:25:53;1.58;;;0.63;;
64915;SDS011;51427;-27.442;153.014;2024-03-17T06:28:21;1.65;;;0.80;;
64915;SDS011;51427;-27.442;153.014;2024-03-17T06:30:55;3.17;;;0.85;;
64915;SDS011;51427;-27.442;153.014;2024-03-17T06:33:30;5.18;;;0.98;;
64915;SDS011;51427;-27.442;153.014;2024-03-17T06:35:58;4.57;;;1.00;;
64915;SDS011;51427;-27.442;153.014;2024-03-17T06:38:34;4.68;;;0.98;;
64915;SDS011;51427;-27.442;153.014;2024-03-17T06:41:01;4.60;;;1.23;;
64915;SDS011;51427;-27.442;153.014;2024-03-17T06:43:29;3.28;;;1.10;;
64915;SDS011;51427;-27.442;153.014;2024-03-17T06:45:59;5.32;;;1.08;;
64915;SDS011;51427;-27.442;153.014;2024-03-17T06:48:27;4.22;;;0.95;;
64915;SDS011;51427;-27.442;153.014;2024-03-17T06:50:55;3.80;;;0.90;;
64915;SDS011;51427;-27.442;153.014;2024-03-17T06:53:23;4.55;;;0.77;;
64915;SDS011;51427;-27.442;153.014;2024-03-17T06:55:58;4.05;;;1.02;;
64915;SDS011;51427;-27.442;153.014;2024-03-17T06:58:26;3.08;;;0.75;;
64915;SDS011;51427;-27.442;153.014;2024-03-17T07:00:59;2.72;;;0.80;;
64915;SDS011;51427;-27.442;153.014;2024-03-17T07:03:30;4.53;;;1.30;;
64915;SDS011;51427;-27.442;153.014;2024-03-17T07:06:02;3.50;;;1.10;;
64915;SDS011;51427;-27.442;153.014;2024-03-17T07:08:30;5.45;;;0.95;;
64915;SDS011;51427;-27.442;153.014;2024-03-17T07:11:01;1.13;;;0.80;;
64915;SDS011;51427;-27.442;153.014;2024-03-17T07:13:32;3.33;;;0.98;;
64915;SDS011;51427;-27.442;153.014;2024-03-17T07:16:01;3.97;;;0.93;;
64915;SDS011;51427;-27.442;153.014;2024-03-17T07:18:31;4.13;;;0.90;;
64915;SDS011;51427;-27.442;153.014;2024-03-17T07:21:00;1.73;;;0.95;;
64915;SDS011;51427;-27.442;153.014;2024-03-17T07:23:35;3.95;;;1.00;;
64915;SDS011;51427;-27.442;153.014;2024-03-17T07:26:04;5.68;;;0.98;;
64915;SDS011;51427;-27.442;153.014;2024-03-17T07:28:31;5.45;;;0.73;;
64915;SDS011;51427;-27.442;153.014;2024-03-17T07:30:59;3.13;;;0.77;;
64915;SDS011;51427;-27.442;153.014;2024-03-17T07:33:29;4.53;;;0.82;;
64915;SDS011;51427;-27.442;153.014;2024-03-17T07:35:57;2.60;;;0.82;;
64915;SDS011;51427;-27.442;153.014;2024-03-17T07:38:29;4.68;;;1.17;;
64915;SDS011;51427;-27.442;153.014;2024-03-17T07:41:03;4.90;;;0.98;;
64915;SDS011;51427;-27.442;153.014;2024-03-17T07:43:32;1.30;;;0.98;;
64915;SDS011;51427;-27.442;153.014;2024-03-17T07:46:02;3.88;;;1.10;;
64915;SDS011;51427;-27.442;153.014;2024-03-17T07:48:40;5.30;;;0.90;;
64915;SDS011;51427;-27.442;153.014;2024-03-17T07:51:14;3.88;;;1.00;;
64915;SDS011;51427;-27.442;153.014;2024-03-17T07:53:45;1.90;;;0.73;;
64915;SDS011;51427;-27.442;153.014;2024-03-17T07:56:14;2.63;;;0.73;;
64915;SDS011;51427;-27.442;153.014;2024-03-17T07:58:42;3.55;;;0.80;;
64915;SDS011;51427;-27.442;153.014;2024-03-17T08:01:14;4.85;;;1.00;;
64915;SDS011;51427;-27.442;153.014;2024-03-17T08:03:44;3.10;;;0.80;;
64915;SDS011;51427;-27.442;153.014;2024-03-17T08:06:19;2.58;;;0.60;;
64915;SDS011;51427;-27.442;153.014;2024-03-17T08:08:46;2.92;;;0.70;;
64915;SDS011;51427;-27.442;153.014;2024-03-17T08:11:13;2.88;;;1.20;;
64915;SDS011;51427;-27.442;153.014;2024-03-17T08:13:41;4.28;;;1.00;;
64915;SDS011;51427;-27.442;153.014;2024-03-17T08:16:09;4.03;;;0.98;;
64915;SDS011;51427;-27.442;153.014;2024-03-17T08:18:36;2.03;;;0.85;;
64915;SDS011;51427;-27.442;153.014;2024-03-17T08:21:04;1.63;;;0.70;;
64915;SDS011;51427;-27.442;153.014;2024-03-17T08:23:32;4.50;;;1.00;;
64915;SDS011;51427;-27.442;153.014;2024-03-17T08:26:05;3.10;;;0.95;;
64915;SDS011;51427;-27.442;153.014;2024-03-17T08:28:32;3.13;;;1.05;;
64915;SDS011;51427;-27.442;153.014;2024-03-17T08:31:00;3.50;;;1.08;;
64915;SDS011;51427;-27.442;153.014;2024-03-17T08:33:29;2.63;;;0.77;;
64915;SDS011;51427;-27.442;153.014;2024-03-17T08:38:31;4.85;;;0.90;;
64915;SDS011;51427;-27.442;153.014;2024-03-17T08:41:17;7.95;;;1.13;;
64915;SDS011;51427;-27.442;153.014;2024-03-17T08:43:44;1.88;;;1.02;;
64915;SDS011;51427;-27.442;153.014;2024-03-17T08:46:12;5.13;;;1.40;;
64915;SDS011;51427;-27.442;153.014;2024-03-17T08:48:40;4.85;;;2.13;;
64915;SDS011;51427;-27.442;153.014;2024-03-17T08:51:08;5.70;;;1.15;;
64915;SDS011;51427;-27.442;153.014;2024-03-17T08:53:36;3.53;;;0.95;;
64915;SDS011;51427;-27.442;153.014;2024-03-17T08:56:05;6.20;;;1.80;;
64915;SDS011;51427;-27.442;153.014;2024-03-17T08:58:32;6.28;;;2.40;;
64915;SDS011;51427;-27.442;153.014;2024-03-17T09:01:03;7.78;;;1.90;;
64915;SDS011;51427;-27.442;153.014;2024-03-17T09:03:31;4.38;;;1.35;;
64915;SDS011;51427;-27.442;153.014;2024-03-17T09:05:58;3.88;;;0.82;;
64915;SDS011;51427;-27.442;153.014;2024-03-17T09:08:25;3.55;;;0.57;;
64915;SDS011;51427;-27.442;153.014;2024-03-17T09:10:54;4.88;;;0.85;;
64915;SDS011;51427;-27.442;153.014;2024-03-17T09:13:22;3.97;;;1.00;;
64915;SDS011;51427;-27.442;153.014;2024-03-17T09:15:58;3.72;;;0.80;;
64915;SDS011;51427;-27.442;153.014;2024-03-17T09:18:26;3.13;;;0.60;;
64915;SDS011;51427;-27.442;153.014;2024-03-17T09:21:16;3.60;;;0.60;;
64915;SDS011;51427;-27.442;153.014;2024-03-17T09:23:43;2.30;;;0.82;;
64915;SDS011;51427;-27.442;153.014;2024-03-17T09:26:10;6.18;;;0.80;;
64915;SDS011;51427;-27.442;153.014;2024-03-17T09:28:39;3.22;;;0.73;;
64915;SDS011;51427;-27.442;153.014;2024-03-17T09:31:07;4.18;;;1.15;;
64915;SDS011;51427;-27.442;153.014;2024-03-17T09:33:34;2.28;;;0.90;;
64915;SDS011;51427;-27.442;153.014;2024-03-17T09:36:05;5.47;;;1.20;;
64915;SDS011;51427;-27.442;153.014;2024-03-17T09:38:35;4.80;;;1.30;;
64915;SDS011;51427;-27.442;153.014;2024-03-17T09:41:02;6.55;;;0.93;;
64915;SDS011;51427;-27.442;153.014;2024-03-17T09:43:33;4.43;;;0.80;;
64915;SDS011;51427;-27.442;153.014;2024-03-17T09:46:05;6.88;;;1.30;;
64915;SDS011;51427;-27.442;153.014;2024-03-17T09:48:33;4.50;;;1.00;;
64915;SDS011;51427;-27.442;153.014;2024-03-17T09:51:03;2.78;;;0.88;;
64915;SDS011;51427;-27.442;153.014;2024-03-17T09:58:32;5.32;;;1.65;;
64915;SDS011;51427;-27.442;153.014;2024-03-17T10:01:00;8.35;;;1.60;;
64915;SDS011;51427;-27.442;153.014;2024-03-17T10:06:30;5.20;;;1.60;;
64915;SDS011;51427;-27.442;153.014;2024-03-17T10:08:58;4.35;;;1.30;;
64915;SDS011;51427;-27.442;153.014;2024-03-17T10:11:42;4.30;;;1.05;;
64915;SDS011;51427;-27.442;153.014;2024-03-17T10:14:10;3.78;;;1.70;;
64915;SDS011;51427;-27.442;153.014;2024-03-17T10:16:37;5.55;;;1.20;;
64915;SDS011;51427;-27.442;153.014;2024-03-17T10:21:39;3.47;;;0.80;;
64915;SDS011;51427;-27.442;153.014;2024-03-17T10:24:20;3.75;;;1.65;;
64915;SDS011;51427;-27.442;153.014;2024-03-17T10:29:26;4.25;;;1.33;;
64915;SDS011;51427;-27.442;153.014;2024-03-17T10:31:56;7.43;;;1.63;;
64915;SDS011;51427;-27.442;153.014;2024-03-17T10:34:26;5.40;;;1.20;;
64915;SDS011;51427;-27.442;153.014;2024-03-17T10:39:52;5.03;;;1.38;;
64915;SDS011;51427;-27.442;153.014;2024-03-17T10:42:29;7.13;;;1.20;;
64915;SDS011;51427;-27.442;153.014;2024-03-17T10:45:02;4.60;;;1.13;;
64915;SDS011;51427;-27.442;153.014;2024-03-17T10:47:35;8.02;;;1.48;;
64915;SDS011;51427;-27.442;153.014;2024-03-17T10:50:02;5.10;;;1.42;;
64915;SDS011;51427;-27.442;153.014;2024-03-17T10:52:33;6.07;;;1.10;;
64915;SDS011;51427;-27.442;153.014;2024-03-17T10:55:07;4.22;;;1.27;;
64915;SDS011;51427;-27.442;153.014;2024-03-17T11:00:03;5.60;;;1.45;;
64915;SDS011;51427;-27.442;153.014;2024-03-17T11:02:35;8.05;;;1.75;;
64915;SDS011;51427;-27.442;153.014;2024-03-17T11:07:44;7.00;;;1.20;;
64915;SDS011;51427;-27.442;153.014;2024-03-17T11:12:58;9.05;;;2.20;;
64915;SDS011;51427;-27.442;153.014;2024-03-17T11:20:36;10.15;;;1.52;;
64915;SDS011;51427;-27.442;153.014;2024-03-17T11:23:06;7.40;;;1.40;;
64915;SDS011;51427;-27.442;153.014;2024-03-17T11:25:38;5.38;;;1.20;;
64915;SDS011;51427;-27.442;153.014;2024-03-17T11:28:09;7.00;;;1.58;;
64915;SDS011;51427;-27.442;153.014;2024-03-17T11:39:08;6.82;;;1.58;;
64915;SDS011;51427;-27.442;153.014;2024-03-17T11:41:46;7.78;;;1.92;;
64915;SDS011;51427;-27.442;153.014;2024-03-17T11:49:39;4.53;;;1.50;;
64915;SDS011;51427;-27.442;153.014;2024-03-17T11:52:13;6.75;;;1.50;;
64915;SDS011;51427;-27.442;153.014;2024-03-17T11:54:42;1.67;;;1.27;;
64915;SDS011;51427;-27.442;153.014;2024-03-17T11:57:29;6.50;;;1.35;;
64915;SDS011;51427;-27.442;153.014;2024-03-17T11:59:57;6.15;;;1.38;;
64915;SDS011;51427;-27.442;153.014;2024-03-17T12:02:31;6.28;;;1.55;;
64915;SDS011;51427;-27.442;153.014;2024-03-17T12:05:02;6.65;;;1.55;;
64915;SDS011;51427;-27.442;153.014;2024-03-17T12:07:31;4.82;;;1.50;;
64915;SDS011;51427;-27.442;153.014;2024-03-17T12:09:59;6.18;;;2.05;;
64915;SDS011;51427;-27.442;153.014;2024-03-17T12:12:29;6.18;;;1.67;;
64915;SDS011;51427;-27.442;153.014;2024-03-17T12:15:01;7.03;;;1.40;;
64915;SDS011;51427;-27.442;153.014;2024-03-17T12:17:31;6.38;;;1.65;;
64915;SDS011;51427;-27.442;153.014;2024-03-17T12:19:59;6.43;;;1.35;;
64915;SDS011;51427;-27.442;153.014;2024-03-17T12:22:26;8.57;;;2.20;;
64915;SDS011;51427;-27.442;153.014;2024-03-17T12:24:59;8.60;;;1.92;;
64915;SDS011;51427;-27.442;153.014;2024-03-17T12:27:27;4.32;;;1.25;;
64915;SDS011;51427;-27.442;153.014;2024-03-17T12:29:55;7.13;;;1.35;;
64915;SDS011;51427;-27.442;153.014;2024-03-17T12:32:24;6.60;;;1.85;;
64915;SDS011;51427;-27.442;153.014;2024-03-17T12:34:52;8.02;;;1.90;;
64915;SDS011;51427;-27.442;153.014;2024-03-17T12:37:27;4.70;;;1.48;;
64915;SDS011;51427;-27.442;153.014;2024-03-17T12:40:00;4.13;;;1.05;;
64915;SDS011;51427;-27.442;153.014;2024-03-17T12:42:28;2.75;;;1.20;;
64915;SDS011;51427;-27.442;153.014;2024-03-17T12:45:01;5.57;;;1.33;;
64915;SDS011;51427;-27.442;153.014;2024-03-17T12:47:32;5.75;;;1.27;;
64915;SDS011;51427;-27.442;153.014;2024-03-17T12:50:01;5.25;;;1.52;;
64915;SDS011;51427;-27.442;153.014;2024-03-17T12:52:37;2.58;;;1.23;;
64915;SDS011;51427;-27.442;153.014;2024-03-17T12:55:06;1.70;;;0.93;;
64915;SDS011;51427;-27.442;153.014;2024-03-17T12:58:04;1.90;;;1.13;;
64915;SDS011;51427;-27.442;153.014;2024-03-17T13:00:58;3.58;;;1.45;;
64915;SDS011;51427;-27.442;153.014;2024-03-17T13:03:29;5.03;;;1.43;;
64915;SDS011;51427;-27.442;153.014;2024-03-17T13:06:03;5.28;;;1.70;;
64915;SDS011;51427;-27.442;153.014;2024-03-17T13:08:35;4.93;;;1.52;;
64915;SDS011;51427;-27.442;153.014;2024-03-17T13:11:03;4.28;;;1.60;;
64915;SDS011;51427;-27.442;153.014;2024-03-17T13:13:35;2.78;;;1.50;;
64915;SDS011;51427;-27.442;153.014;2024-03-17T13:16:03;5.82;;;1.85;;
64915;SDS011;51427;-27.442;153.014;2024-03-17T13:18:30;2.65;;;1.52;;
64915;SDS011;51427;-27.442;153.014;2024-03-17T13:20:58;6.80;;;1.98;;
64915;SDS011;51427;-27.442;153.014;2024-03-17T13:23:27;5.05;;;1.77;;
64915;SDS011;51427;-27.442;153.014;2024-03-17T13:25:55;5.00;;;2.45;;
64915;SDS011;51427;-27.442;153.014;2024-03-17T13:28:23;6.10;;;2.60;;
64915;SDS011;51427;-27.442;153.014;2024-03-17T13:30:51;6.45;;;1.92;;
64915;SDS011;51427;-27.442;153.014;2024-03-17T13:33:19;4.70;;;1.95;;
64915;SDS011;51427;-27.442;153.014;2024-03-17T13:35:46;11.77;;;2.30;;
64915;SDS011;51427;-27.442;153.014;2024-03-17T13:38:14;8.55;;;2.03;;
64915;SDS011;51427;-27.442;153.014;2024-03-17T13:40:42;5.40;;;1.63;;
64915;SDS011;51427;-27.442;153.014;2024-03-17T13:43:09;11.45;;;2.85;;
64915;SDS011;51427;-27.442;153.014;2024-03-17T13:45:40;8.10;;;2.80;;
64915;SDS011;51427;-27.442;153.014;2024-03-17T13:48:15;7.38;;;2.80;;
64915;SDS011;51427;-27.442;153.014;2024-03-17T13:50:43;10.90;;;2.75;;
64915;SDS011;51427;-27.442;153.014;2024-03-17T13:53:13;8.88;;;2.80;;
64915;SDS011;51427;-27.442;153.014;2024-03-17T13:55:40;7.65;;;2.70;;
64915;SDS011;51427;-27.442;153.014;2024-03-17T13:58:08;5.82;;;1.92;;
64915;SDS011;51427;-27.442;153.014;2024-03-17T14:00:36;9.77;;;2.35;;
64915;SDS011;51427;-27.442;153.014;2024-03-17T14:03:05;6.15;;;2.13;;
64915;SDS011;51427;-27.442;153.014;2024-03-17T14:05:33;6.90;;;2.20;;
64915;SDS011;51427;-27.442;153.014;2024-03-17T14:08:01;11.02;;;2.25;;
64915;SDS011;51427;-27.442;153.014;2024-03-17T14:10:30;7.20;;;2.65;;
64915;SDS011;51427;-27.442;153.014;2024-03-17T14:12:58;7.47;;;2.10;;
64915;SDS011;51427;-27.442;153.014;2024-03-17T14:15:25;6.30;;;1.75;;
64915;SDS011;51427;-27.442;153.014;2024-03-17T14:17:53;4.85;;;1.60;;
64915;SDS011;51427;-27.442;153.014;2024-03-17T14:20:21;5.63;;;1.83;;
64915;SDS011;51427;-27.442;153.014;2024-03-17T14:22:49;7.07;;;1.52;;
64915;SDS011;51427;-27.442;153.014;2024-03-17T14:25:23;7.32;;;2.35;;
64915;SDS011;51427;-27.442;153.014;2024-03-17T14:27:51;6.80;;;1.33;;
64915;SDS011;51427;-27.442;153.014;2024-03-17T14:30:19;8.48;;;1.52;;
64915;SDS011;51427;-27.442;153.014;2024-03-17T14:32:47;6.40;;;1.52;;
64915;SDS011;51427;-27.442;153.014;2024-03-17T14:35:16;5.07;;;1.50;;
64915;SDS011;51427;-27.442;153.014;2024-03-17T14:37:46;5.78;;;2.20;;
64915;SDS011;51427;-27.442;153.014;2024-03-17T14:40:15;7.80;;;2.35;;
64915;SDS011;51427;-27.442;153.014;2024-03-17T14:42:54;9.63;;;2.42;;
64915;SDS011;51427;-27.442;153.014;2024-03-17T14:45:22;7.88;;;2.35;;
64915;SDS011;51427;-27.442;153.014;2024-03-17T14:47:51;7.20;;;1.75;;
64915;SDS011;51427;-27.442;153.014;2024-03-17T14:50:18;9.23;;;2.03;;
64915;SDS011;51427;-27.442;153.014;2024-03-17T14:52:46;5.40;;;1.63;;
64915;SDS011;51427;-27.442;153.014;2024-03-17T14:55:15;7.45;;;1.65;;
64915;SDS011;51427;-27.442;153.014;2024-03-17T14:57:43;8.38;;;1.70;;
64915;SDS011;51427;-27.442;153.014;2024-03-17T15:00:11;5.30;;;1.23;;
64915;SDS011;51427;-27.442;153.014;2024-03-17T15:02:43;7.45;;;1.77;;
64915;SDS011;51427;-27.442;153.014;2024-03-17T15:05:14;8.05;;;1.70;;